Time,TemperatureF,DewpointF,PressureIn,WindDirection,WindDirectionDegrees,WindSpeedMPH,WindSpeedGustMPH,Humidity,HourlyPrecipIn,Conditions,Clouds,dailyrainin,SoftwareType,DateUTC
2013-07-31 11:02:00,83.0,-99.9,-100.00,NW,324,8.0,13.0,-999,-99.99,,,-99.99,,2013-07-31 18:02:00,
2013-07-31 11:13:00,83.0,-99.9,-100.00,NW,324,8.0,13.0,-999,-99.99,,,-99.99,,2013-07-31 18:13:00,
2013-07-31 12:03:00,88.0,-99.9,-100.00,NNW,348,6.0,13.0,-999,-99.99,,,-99.99,,2013-07-31 19:03:00,
2013-07-31 12:12:00,88.0,-99.9,-100.00,NNW,348,6.0,13.0,-999,-99.99,,,-99.99,,2013-07-31 19:12:00,
2013-07-31 13:03:00,88.0,-99.9,-100.00,NW,319,7.0,13.0,-999,-99.99,,,-99.99,,2013-07-31 20:03:00,
2013-07-31 13:13:00,88.0,-99.9,-100.00,NW,319,7.0,13.0,-999,-99.99,,,-99.99,,2013-07-31 20:13:00,
2013-07-31 14:03:00,89.0,-99.9,-100.00,WNW,287,6.0,12.0,-999,-99.99,,,-99.99,,2013-07-31 21:03:00,
2013-07-31 14:13:00,89.0,-99.9,-100.00,WNW,287,6.0,12.0,-999,-99.99,,,-99.99,,2013-07-31 21:13:00,
2013-07-31 15:02:00,90.0,-99.9,-100.00,NW,312,8.0,18.0,-999,-99.99,,,-99.99,,2013-07-31 22:02:00,
2013-07-31 15:13:00,90.0,-99.9,-100.00,NW,312,8.0,18.0,-999,-99.99,,,-99.99,,2013-07-31 22:13:00,
2013-07-31 16:02:00,91.0,-99.9,-100.00,NW,320,8.0,14.0,-999,-99.99,,,-99.99,,2013-07-31 23:02:00,
2013-07-31 16:12:00,91.0,-99.9,-100.00,NW,320,8.0,14.0,-999,-99.99,,,-99.99,,2013-07-31 23:12:00,
2013-07-31 17:03:00,86.0,-99.9,-100.00,SSE,147,12.0,22.0,-999,-99.99,,,-99.99,,2013-08-01 00:03:00,
2013-07-31 17:12:00,86.0,-99.9,-100.00,SSE,147,12.0,22.0,-999,-99.99,,,-99.99,,2013-08-01 00:12:00,
2013-07-31 18:03:00,87.0,-99.9,-100.00,SE,138,6.0,13.0,-999,-99.99,,,-99.99,,2013-08-01 01:03:00,
2013-07-31 18:13:00,87.0,-99.9,-100.00,SE,138,6.0,13.0,-999,-99.99,,,-99.99,,2013-08-01 01:13:00,
2013-07-31 19:03:00,91.0,-99.9,-100.00,ENE,72,6.0,10.0,-999,-99.99,,,-99.99,,2013-08-01 02:03:00,
2013-07-31 19:13:00,91.0,-99.9,-100.00,ENE,72,6.0,10.0,-999,-99.99,,,-99.99,,2013-08-01 02:13:00,
2013-07-31 20:02:00,87.0,-99.9,-100.00,ENE,74,1.0,2.0,-999,-99.99,,,-99.99,,2013-08-01 03:02:00,
2013-07-31 20:12:00,87.0,-99.9,-100.00,ENE,74,1.0,2.0,-999,-99.99,,,-99.99,,2013-08-01 03:12:00,
2013-07-31 21:03:00,82.0,-99.9,-100.00,North,10,5.0,6.0,-999,-99.99,,,-99.99,,2013-08-01 04:03:00,
2013-07-31 21:13:00,82.0,-99.9,-100.00,North,10,5.0,6.0,-999,-99.99,,,-99.99,,2013-08-01 04:13:00,
2013-07-31 22:03:00,78.0,-99.9,-100.00,West,263,5.0,8.0,-999,-99.99,,,-99.99,,2013-08-01 05:03:00,
2013-07-31 22:13:00,78.0,-99.9,-100.00,West,263,5.0,8.0,-999,-99.99,,,-99.99,,2013-08-01 05:13:00,
2013-07-31 23:02:00,77.0,-99.9,-100.00,NW,323,5.0,8.0,-999,-99.99,,,-99.99,,2013-08-01 06:02:00,
2013-07-31 23:13:00,77.0,-99.9,-100.00,NW,323,5.0,8.0,-999,-99.99,,,-99.99,,2013-08-01 06:13:00,